sensor_id;sensor_type;location;lat;lon;timestamp;P1;durP1;ratioP1;P2;durP2;ratioP2
42186;SDS011;27858;51.414;0.018;2023-11-21T00:02:27;1.33;;;1.10;;
42186;SDS011;27858;51.414;0.018;2023-11-21T00:04:54;1.70;;;1.45;;
42186;SDS011;27858;51.414;0.018;2023-11-21T00:07:21;1.60;;;1.27;;
42186;SDS011;27858;51.414;0.018;2023-11-21T00:09:48;1.55;;;1.33;;
42186;SDS011;27858;51.414;0.018;2023-11-21T00:12:15;4.25;;;1.50;;
42186;SDS011;27858;51.414;0.018;2023-11-21T00:14:43;1.85;;;1.48;;
42186;SDS011;27858;51.414;0.018;2023-11-21T00:17:09;1.63;;;1.10;;
42186;SDS011;27858;51.414;0.018;2023-11-21T00:19:36;2.25;;;1.38;;
42186;SDS011;27858;51.414;0.018;2023-11-21T00:22:03;2.15;;;1.30;;
42186;SDS011;27858;51.414;0.018;2023-11-21T00:24:30;4.35;;;1.95;;
42186;SDS011;27858;51.414;0.018;2023-11-21T00:26:58;1.60;;;1.30;;
42186;SDS011;27858;51.414;0.018;2023-11-21T00:29:24;2.85;;;1.20;;
42186;SDS011;27858;51.414;0.018;2023-11-21T00:31:52;3.92;;;1.95;;
42186;SDS011;27858;51.414;0.018;2023-11-21T00:34:19;1.55;;;1.25;;
42186;SDS011;27858;51.414;0.018;2023-11-21T00:36:46;1.33;;;1.20;;
42186;SDS011;27858;51.414;0.018;2023-11-21T00:39:13;2.45;;;1.40;;
42186;SDS011;27858;51.414;0.018;2023-11-21T00:41:43;3.05;;;1.50;;
42186;SDS011;27858;51.414;0.018;2023-11-21T00:44:11;1.17;;;1.08;;
42186;SDS011;27858;51.414;0.018;2023-11-21T00:46:37;4.13;;;1.80;;
42186;SDS011;27858;51.414;0.018;2023-11-21T00:49:04;3.15;;;1.05;;
42186;SDS011;27858;51.414;0.018;2023-11-21T00:51:31;3.03;;;1.85;;
42186;SDS011;27858;51.414;0.018;2023-11-21T00:53:59;2.35;;;2.05;;
42186;SDS011;27858;51.414;0.018;2023-11-21T00:56:26;3.13;;;2.08;;
42186;SDS011;27858;51.414;0.018;2023-11-21T00:58:54;1.85;;;1.75;;
42186;SDS011;27858;51.414;0.018;2023-11-21T01:01:21;3.30;;;1.92;;
42186;SDS011;27858;51.414;0.018;2023-11-21T01:03:49;2.30;;;1.60;;
42186;SDS011;27858;51.414;0.018;2023-11-21T01:06:16;3.03;;;2.22;;
42186;SDS011;27858;51.414;0.018;2023-11-21T01:08:43;1.75;;;1.60;;
42186;SDS011;27858;51.414;0.018;2023-11-21T01:11:11;4.78;;;1.65;;
42186;SDS011;27858;51.414;0.018;2023-11-21T01:13:39;3.65;;;1.83;;
42186;SDS011;27858;51.414;0.018;2023-11-21T01:16:06;2.95;;;1.95;;
42186;SDS011;27858;51.414;0.018;2023-11-21T01:18:34;2.70;;;2.17;;
42186;SDS011;27858;51.414;0.018;2023-11-21T01:21:02;2.00;;;1.02;;
42186;SDS011;27858;51.414;0.018;2023-11-21T01:23:30;3.33;;;1.98;;
42186;SDS011;27858;51.414;0.018;2023-11-21T01:25:57;2.88;;;1.85;;
42186;SDS011;27858;51.414;0.018;2023-11-21T01:28:24;2.67;;;1.75;;
42186;SDS011;27858;51.414;0.018;2023-11-21T01:30:51;2.70;;;1.63;;
42186;SDS011;27858;51.414;0.018;2023-11-21T01:33:19;1.45;;;1.30;;
42186;SDS011;27858;51.414;0.018;2023-11-21T01:35:46;1.88;;;1.52;;
42186;SDS011;27858;51.414;0.018;2023-11-21T01:38:15;2.10;;;1.90;;
42186;SDS011;27858;51.414;0.018;2023-11-21T01:40:43;2.00;;;1.65;;
42186;SDS011;27858;51.414;0.018;2023-11-21T01:43:10;1.83;;;1.45;;
42186;SDS011;27858;51.414;0.018;2023-11-21T01:45:37;1.35;;;1.25;;
42186;SDS011;27858;51.414;0.018;2023-11-21T01:48:05;1.50;;;1.40;;
42186;SDS011;27858;51.414;0.018;2023-11-21T01:50:33;2.10;;;1.55;;
42186;SDS011;27858;51.414;0.018;2023-11-21T01:53:00;2.72;;;1.42;;
42186;SDS011;27858;51.414;0.018;2023-11-21T01:55:28;0.95;;;0.90;;
42186;SDS011;27858;51.414;0.018;2023-11-21T01:57:56;1.42;;;1.25;;
42186;SDS011;27858;51.414;0.018;2023-11-21T02:00:24;1.73;;;0.93;;
42186;SDS011;27858;51.414;0.018;2023-11-21T02:02:51;1.30;;;0.93;;
42186;SDS011;27858;51.414;0.018;2023-11-21T02:05:19;1.05;;;0.60;;
42186;SDS011;27858;51.414;0.018;2023-11-21T02:07:48;1.23;;;0.70;;
42186;SDS011;27858;51.414;0.018;2023-11-21T02:10:15;2.13;;;0.55;;
42186;SDS011;27858;51.414;0.018;2023-11-21T02:12:42;0.80;;;0.70;;
42186;SDS011;27858;51.414;0.018;2023-11-21T02:15:12;1.15;;;0.90;;
42186;SDS011;27858;51.414;0.018;2023-11-21T02:17:50;1.02;;;0.90;;
42186;SDS011;27858;51.414;0.018;2023-11-21T02:20:21;0.50;;;0.40;;
42186;SDS011;27858;51.414;0.018;2023-11-21T02:22:53;1.77;;;0.65;;
42186;SDS011;27858;51.414;0.018;2023-11-21T02:25:27;0.85;;;0.70;;
42186;SDS011;27858;51.414;0.018;2023-11-21T02:28:04;1.10;;;0.85;;
42186;SDS011;27858;51.414;0.018;2023-11-21T02:30:33;0.47;;;0.45;;
42186;SDS011;27858;51.414;0.018;2023-11-21T02:33:00;0.70;;;0.60;;
42186;SDS011;27858;51.414;0.018;2023-11-21T02:35:29;0.60;;;0.52;;
42186;SDS011;27858;51.414;0.018;2023-11-21T02:37:57;2.33;;;1.38;;
42186;SDS011;27858;51.414;0.018;2023-11-21T02:40:24;1.23;;;0.77;;
42186;SDS011;27858;51.414;0.018;2023-11-21T02:42:53;0.50;;;0.30;;
42186;SDS011;27858;51.414;0.018;2023-11-21T02:45:20;1.13;;;0.70;;
42186;SDS011;27858;51.414;0.018;2023-11-21T02:47:47;0.70;;;0.65;;
42186;SDS011;27858;51.414;0.018;2023-11-21T02:50:19;1.17;;;0.88;;
42186;SDS011;27858;51.414;0.018;2023-11-21T02:52:46;1.15;;;1.00;;
42186;SDS011;27858;51.414;0.018;2023-11-21T02:55:13;1.98;;;0.90;;
42186;SDS011;27858;51.414;0.018;2023-11-21T02:57:40;1.95;;;0.88;;
42186;SDS011;27858;51.414;0.018;2023-11-21T03:00:07;1.75;;;1.15;;
42186;SDS011;27858;51.414;0.018;2023-11-21T03:02:36;2.25;;;1.30;;
42186;SDS011;27858;51.414;0.018;2023-11-21T03:05:06;1.10;;;0.98;;
42186;SDS011;27858;51.414;0.018;2023-11-21T03:07:38;1.08;;;0.80;;
42186;SDS011;27858;51.414;0.018;2023-11-21T03:10:07;1.48;;;0.90;;
42186;SDS011;27858;51.414;0.018;2023-11-21T03:12:37;1.20;;;1.00;;
42186;SDS011;27858;51.414;0.018;2023-11-21T03:15:07;1.88;;;1.50;;
42186;SDS011;27858;51.414;0.018;2023-11-21T03:17:35;1.73;;;1.42;;
42186;SDS011;27858;51.414;0.018;2023-11-21T03:20:02;1.45;;;1.10;;
42186;SDS011;27858;51.414;0.018;2023-11-21T03:22:30;1.45;;;1.15;;
42186;SDS011;27858;51.414;0.018;2023-11-21T03:24:57;1.60;;;1.10;;
42186;SDS011;27858;51.414;0.018;2023-11-21T03:27:24;1.50;;;1.20;;
42186;SDS011;27858;51.414;0.018;2023-11-21T03:29:51;1.95;;;1.00;;
42186;SDS011;27858;51.414;0.018;2023-11-21T03:32:18;1.52;;;1.10;;
42186;SDS011;27858;51.414;0.018;2023-11-21T03:34:55;1.10;;;1.00;;
42186;SDS011;27858;51.414;0.018;2023-11-21T03:37:24;1.10;;;0.82;;
42186;SDS011;27858;51.414;0.018;2023-11-21T03:39:55;1.02;;;0.90;;
42186;SDS011;27858;51.414;0.018;2023-11-21T03:42:23;1.02;;;0.95;;
42186;SDS011;27858;51.414;0.018;2023-11-21T03:44:53;0.80;;;0.77;;
42186;SDS011;27858;51.414;0.018;2023-11-21T03:47:20;1.88;;;1.00;;
42186;SDS011;27858;51.414;0.018;2023-11-21T03:49:48;2.05;;;1.23;;
42186;SDS011;27858;51.414;0.018;2023-11-21T03:52:15;0.77;;;0.77;;
42186;SDS011;27858;51.414;0.018;2023-11-21T03:54:42;1.33;;;0.70;;
42186;SDS011;27858;51.414;0.018;2023-11-21T03:57:09;1.13;;;0.63;;
42186;SDS011;27858;51.414;0.018;2023-11-21T03:59:39;0.82;;;0.82;;
42186;SDS011;27858;51.414;0.018;2023-11-21T04:02:07;0.85;;;0.60;;
42186;SDS011;27858;51.414;0.018;2023-11-21T04:04:36;1.23;;;0.88;;
42186;SDS011;27858;51.414;0.018;2023-11-21T04:07:03;0.77;;;0.40;;
42186;SDS011;27858;51.414;0.018;2023-11-21T04:09:31;0.52;;;0.50;;
42186;SDS011;27858;51.414;0.018;2023-11-21T04:11:57;1.45;;;0.43;;
42186;SDS011;27858;51.414;0.018;2023-11-21T04:14:24;0.93;;;0.60;;
42186;SDS011;27858;51.414;0.018;2023-11-21T04:16:51;0.50;;;0.50;;
42186;SDS011;27858;51.414;0.018;2023-11-21T04:19:18;1.50;;;1.05;;
42186;SDS011;27858;51.414;0.018;2023-11-21T04:21:45;0.93;;;0.52;;
42186;SDS011;27858;51.414;0.018;2023-11-21T04:24:12;1.20;;;0.50;;
42186;SDS011;27858;51.414;0.018;2023-11-21T04:26:39;0.50;;;0.50;;
42186;SDS011;27858;51.414;0.018;2023-11-21T04:29:05;1.08;;;0.73;;
42186;SDS011;27858;51.414;0.018;2023-11-21T04:31:32;0.80;;;0.80;;
42186;SDS011;27858;51.414;0.018;2023-11-21T04:33:59;2.13;;;0.80;;
42186;SDS011;27858;51.414;0.018;2023-11-21T04:36:26;2.15;;;0.40;;
42186;SDS011;27858;51.414;0.018;2023-11-21T04:38:53;0.60;;;0.40;;
42186;SDS011;27858;51.414;0.018;2023-11-21T04:41:19;0.30;;;0.30;;
42186;SDS011;27858;51.414;0.018;2023-11-21T04:43:46;0.32;;;0.32;;
42186;SDS011;27858;51.414;0.018;2023-11-21T04:46:13;1.10;;;0.80;;
42186;SDS011;27858;51.414;0.018;2023-11-21T04:48:40;0.50;;;0.50;;
42186;SDS011;27858;51.414;0.018;2023-11-21T04:51:07;0.52;;;0.50;;
42186;SDS011;27858;51.414;0.018;2023-11-21T04:53:33;0.40;;;0.40;;
42186;SDS011;27858;51.414;0.018;2023-11-21T04:56:01;0.32;;;0.30;;
42186;SDS011;27858;51.414;0.018;2023-11-21T04:58:28;1.27;;;0.47;;
42186;SDS011;27858;51.414;0.018;2023-11-21T05:00:57;0.52;;;0.22;;
42186;SDS011;27858;51.414;0.018;2023-11-21T05:03:23;0.47;;;0.40;;
42186;SDS011;27858;51.414;0.018;2023-11-21T05:05:51;0.70;;;0.45;;
42186;SDS011;27858;51.414;0.018;2023-11-21T05:08:18;0.40;;;0.40;;
42186;SDS011;27858;51.414;0.018;2023-11-21T05:10:46;0.57;;;0.40;;
42186;SDS011;27858;51.414;0.018;2023-11-21T05:13:14;4.35;;;0.40;;
42186;SDS011;27858;51.414;0.018;2023-11-21T05:15:43;0.20;;;0.20;;
42186;SDS011;27858;51.414;0.018;2023-11-21T05:18:10;2.05;;;0.50;;
42186;SDS011;27858;51.414;0.018;2023-11-21T05:20:40;3.40;;;0.68;;
42186;SDS011;27858;51.414;0.018;2023-11-21T05:23:07;0.57;;;0.30;;
42186;SDS011;27858;51.414;0.018;2023-11-21T05:25:34;0.73;;;0.32;;
42186;SDS011;27858;51.414;0.018;2023-11-21T05:28:04;1.55;;;0.70;;
42186;SDS011;27858;51.414;0.018;2023-11-21T05:30:31;0.63;;;0.50;;
42186;SDS011;27858;51.414;0.018;2023-11-21T05:32:57;0.30;;;0.30;;
42186;SDS011;27858;51.414;0.018;2023-11-21T05:35:24;0.63;;;0.40;;
42186;SDS011;27858;51.414;0.018;2023-11-21T05:37:51;0.50;;;0.40;;
42186;SDS011;27858;51.414;0.018;2023-11-21T05:40:18;0.35;;;0.35;;
42186;SDS011;27858;51.414;0.018;2023-11-21T05:42:45;0.90;;;0.70;;
42186;SDS011;27858;51.414;0.018;2023-11-21T05:45:11;0.90;;;0.60;;
42186;SDS011;27858;51.414;0.018;2023-11-21T05:47:43;0.50;;;0.50;;
42186;SDS011;27858;51.414;0.018;2023-11-21T05:50:15;1.15;;;0.60;;
42186;SDS011;27858;51.414;0.018;2023-11-21T05:52:44;1.08;;;0.60;;
42186;SDS011;27858;51.414;0.018;2023-11-21T05:55:12;0.82;;;0.60;;
42186;SDS011;27858;51.414;0.018;2023-11-21T05:57:40;0.85;;;0.60;;
42186;SDS011;27858;51.414;0.018;2023-11-21T06:00:11;1.65;;;0.85;;
42186;SDS011;27858;51.414;0.018;2023-11-21T06:02:47;1.00;;;0.63;;
42186;SDS011;27858;51.414;0.018;2023-11-21T06:05:22;1.67;;;1.05;;
42186;SDS011;27858;51.414;0.018;2023-11-21T06:07:55;1.30;;;0.85;;
42186;SDS011;27858;51.414;0.018;2023-11-21T06:10:25;1.73;;;0.80;;
42186;SDS011;27858;51.414;0.018;2023-11-21T06:12:52;0.90;;;0.88;;
42186;SDS011;27858;51.414;0.018;2023-11-21T06:15:20;2.15;;;0.95;;
42186;SDS011;27858;51.414;0.018;2023-11-21T06:17:49;1.17;;;0.80;;
42186;SDS011;27858;51.414;0.018;2023-11-21T06:20:19;1.63;;;0.90;;
42186;SDS011;27858;51.414;0.018;2023-11-21T06:22:48;2.20;;;1.45;;
42186;SDS011;27858;51.414;0.018;2023-11-21T06:25:19;1.92;;;0.90;;
42186;SDS011;27858;51.414;0.018;2023-11-21T06:27:46;0.70;;;0.63;;
42186;SDS011;27858;51.414;0.018;2023-11-21T06:30:14;1.05;;;0.70;;
42186;SDS011;27858;51.414;0.018;2023-11-21T06:32:42;2.00;;;1.17;;
42186;SDS011;27858;51.414;0.018;2023-11-21T06:35:13;1.65;;;0.93;;
42186;SDS011;27858;51.414;0.018;2023-11-21T06:37:42;4.28;;;1.38;;
42186;SDS011;27858;51.414;0.018;2023-11-21T06:40:17;1.00;;;0.50;;
42186;SDS011;27858;51.414;0.018;2023-11-21T06:42:45;1.05;;;0.85;;
42186;SDS011;27858;51.414;0.018;2023-11-21T06:45:13;1.40;;;0.90;;
42186;SDS011;27858;51.414;0.018;2023-11-21T06:47:41;1.27;;;0.50;;
42186;SDS011;27858;51.414;0.018;2023-11-21T06:50:08;1.38;;;0.57;;
42186;SDS011;27858;51.414;0.018;2023-11-21T06:52:35;0.77;;;0.65;;
42186;SDS011;27858;51.414;0.018;2023-11-21T06:55:04;1.70;;;0.50;;
42186;SDS011;27858;51.414;0.018;2023-11-21T06:57:31;1.95;;;0.75;;
42186;SDS011;27858;51.414;0.018;2023-11-21T06:59:58;0.82;;;0.75;;
42186;SDS011;27858;51.414;0.018;2023-11-21T07:02:25;1.38;;;0.73;;
42186;SDS011;27858;51.414;0.018;2023-11-21T07:04:52;1.60;;;0.55;;
42186;SDS011;27858;51.414;0.018;2023-11-21T07:07:19;0.43;;;0.43;;
42186;SDS011;27858;51.414;0.018;2023-11-21T07:09:46;1.83;;;0.60;;
42186;SDS011;27858;51.414;0.018;2023-11-21T07:12:14;5.88;;;0.80;;
42186;SDS011;27858;51.414;0.018;2023-11-21T07:14:41;2.08;;;0.50;;
42186;SDS011;27858;51.414;0.018;2023-11-21T07:17:11;2.70;;;0.75;;
42186;SDS011;27858;51.414;0.018;2023-11-21T07:19:38;0.40;;;0.30;;
42186;SDS011;27858;51.414;0.018;2023-11-21T07:22:05;1.55;;;0.70;;
42186;SDS011;27858;51.414;0.018;2023-11-21T07:24:32;1.73;;;0.50;;
42186;SDS011;27858;51.414;0.018;2023-11-21T07:27:02;2.03;;;0.50;;
42186;SDS011;27858;51.414;0.018;2023-11-21T07:29:31;3.38;;;0.90;;
42186;SDS011;27858;51.414;0.018;2023-11-21T07:31:59;2.50;;;0.70;;
42186;SDS011;27858;51.414;0.018;2023-11-21T07:34:27;1.17;;;0.70;;
42186;SDS011;27858;51.414;0.018;2023-11-21T07:36:55;0.95;;;0.80;;
42186;SDS011;27858;51.414;0.018;2023-11-21T07:39:22;2.38;;;1.02;;
42186;SDS011;27858;51.414;0.018;2023-11-21T07:41:49;0.95;;;0.38;;
42186;SDS011;27858;51.414;0.018;2023-11-21T07:44:17;0.82;;;0.75;;
42186;SDS011;27858;51.414;0.018;2023-11-21T07:46:47;0.98;;;0.80;;
42186;SDS011;27858;51.414;0.018;2023-11-21T07:49:18;1.20;;;0.75;;
42186;SDS011;27858;51.414;0.018;2023-11-21T07:51:47;0.30;;;0.30;;
42186;SDS011;27858;51.414;0.018;2023-11-21T07:54:14;1.00;;;0.80;;
42186;SDS011;27858;51.414;0.018;2023-11-21T07:56:43;1.08;;;0.70;;
42186;SDS011;27858;51.414;0.018;2023-11-21T07:59:11;1.25;;;0.85;;
42186;SDS011;27858;51.414;0.018;2023-11-21T08:01:38;2.28;;;1.02;;
42186;SDS011;27858;51.414;0.018;2023-11-21T08:04:07;1.65;;;0.68;;
42186;SDS011;27858;51.414;0.018;2023-11-21T08:06:34;1.00;;;0.77;;
42186;SDS011;27858;51.414;0.018;2023-11-21T08:09:01;1.63;;;0.98;;
42186;SDS011;27858;51.414;0.018;2023-11-21T08:11:28;1.10;;;0.75;;
42186;SDS011;27858;51.414;0.018;2023-11-21T08:13:59;1.15;;;0.80;;
42186;SDS011;27858;51.414;0.018;2023-11-21T08:16:26;2.55;;;0.93;;
42186;SDS011;27858;51.414;0.018;2023-11-21T08:18:54;1.30;;;1.20;;
42186;SDS011;27858;51.414;0.018;2023-11-21T08:21:21;2.55;;;1.05;;
42186;SDS011;27858;51.414;0.018;2023-11-21T08:23:50;1.17;;;0.90;;
42186;SDS011;27858;51.414;0.018;2023-11-21T08:26:22;1.17;;;0.80;;
42186;SDS011;27858;51.414;0.018;2023-11-21T08:28:49;12.82;;;3.05;;
42186;SDS011;27858;51.414;0.018;2023-11-21T08:31:23;1.27;;;0.90;;
42186;SDS011;27858;51.414;0.018;2023-11-21T08:33:55;2.67;;;1.00;;
42186;SDS011;27858;51.414;0.018;2023-11-21T08:36:22;1.23;;;0.80;;
42186;SDS011;27858;51.414;0.018;2023-11-21T08:38:52;1.42;;;0.70;;
42186;SDS011;27858;51.414;0.018;2023-11-21T08:41:19;0.93;;;0.82;;
42186;SDS011;27858;51.414;0.018;2023-11-21T08:43:50;1.60;;;0.75;;
42186;SDS011;27858;51.414;0.018;2023-11-21T08:46:18;2.83;;;1.08;;
42186;SDS011;27858;51.414;0.018;2023-11-21T08:48:46;2.35;;;1.40;;
42186;SDS011;27858;51.414;0.018;2023-11-21T08:51:13;1.27;;;0.65;;
42186;SDS011;27858;51.414;0.018;2023-11-21T08:53:40;4.57;;;1.10;;
42186;SDS011;27858;51.414;0.018;2023-11-21T08:56:08;1.52;;;0.63;;
42186;SDS011;27858;51.414;0.018;2023-11-21T08:58:40;2.47;;;1.33;;
42186;SDS011;27858;51.414;0.018;2023-11-21T09:01:08;0.98;;;0.80;;
42186;SDS011;27858;51.414;0.018;2023-11-21T09:03:35;1.10;;;0.85;;
42186;SDS011;27858;51.414;0.018;2023-11-21T09:06:02;1.90;;;0.93;;
42186;SDS011;27858;51.414;0.018;2023-11-21T09:08:30;1.23;;;0.70;;
42186;SDS011;27858;51.414;0.018;2023-11-21T09:11:00;0.80;;;0.70;;
42186;SDS011;27858;51.414;0.018;2023-11-21T09:13:27;2.38;;;0.85;;
42186;SDS011;27858;51.414;0.018;2023-11-21T09:15:54;3.03;;;0.90;;
42186;SDS011;27858;51.414;0.018;2023-11-21T09:18:21;1.60;;;1.13;;
42186;SDS011;27858;51.414;0.018;2023-11-21T09:20:48;2.10;;;1.00;;
42186;SDS011;27858;51.414;0.018;2023-11-21T09:23:15;0.47;;;0.47;;
42186;SDS011;27858;51.414;0.018;2023-11-21T09:25:42;0.50;;;0.45;;
42186;SDS011;27858;51.414;0.018;2023-11-21T09:28:13;1.17;;;0.85;;
42186;SDS011;27858;51.414;0.018;2023-11-21T09:30:40;3.97;;;1.08;;
42186;SDS011;27858;51.414;0.018;2023-11-21T09:33:07;1.38;;;0.77;;
42186;SDS011;27858;51.414;0.018;2023-11-21T09:35:37;0.60;;;0.40;;
42186;SDS011;27858;51.414;0.018;2023-11-21T09:38:04;1.13;;;0.75;;
42186;SDS011;27858;51.414;0.018;2023-11-21T09:40:38;1.13;;;0.60;;
42186;SDS011;27858;51.414;0.018;2023-11-21T09:43:09;2.05;;;0.95;;
42186;SDS011;27858;51.414;0.018;2023-11-21T09:45:46;1.20;;;0.70;;
42186;SDS011;27858;51.414;0.018;2023-11-21T09:48:14;0.63;;;0.47;;
42186;SDS011;27858;51.414;0.018;2023-11-21T09:50:43;2.13;;;0.93;;
42186;SDS011;27858;51.414;0.018;2023-11-21T09:53:14;1.60;;;0.70;;
42186;SDS011;27858;51.414;0.018;2023-11-21T09:55:53;0.68;;;0.65;;
42186;SDS011;27858;51.414;0.018;2023-11-21T09:58:21;1.08;;;0.60;;
42186;SDS011;27858;51.414;0.018;2023-11-21T10:00:53;1.05;;;0.55;;
42186;SDS011;27858;51.414;0.018;2023-11-21T10:03:23;0.45;;;0.45;;
42186;SDS011;27858;51.414;0.018;2023-11-21T10:05:50;0.52;;;0.50;;
42186;SDS011;27858;51.414;0.018;2023-11-21T10:08:19;1.35;;;0.93;;
42186;SDS011;27858;51.414;0.018;2023-11-21T10:10:49;0.65;;;0.55;;
42186;SDS011;27858;51.414;0.018;2023-11-21T10:13:19;1.80;;;0.52;;
42186;SDS011;27858;51.414;0.018;2023-11-21T10:15:49;0.88;;;0.68;;
42186;SDS011;27858;51.414;0.018;2023-11-21T10:18:17;1.23;;;0.40;;
42186;SDS011;27858;51.414;0.018;2023-11-21T10:20:45;0.85;;;0.55;;
42186;SDS011;27858;51.414;0.018;2023-11-21T10:23:19;4.70;;;0.50;;
42186;SDS011;27858;51.414;0.018;2023-11-21T10:25:47;1.35;;;0.98;;
42186;SDS011;27858;51.414;0.018;2023-11-21T10:28:16;0.75;;;0.57;;
42186;SDS011;27858;51.414;0.018;2023-11-21T10:30:42;1.42;;;0.70;;
42186;SDS011;27858;51.414;0.018;2023-11-21T10:33:10;1.10;;;0.65;;
42186;SDS011;27858;51.414;0.018;2023-11-21T10:35:44;0.32;;;0.30;;
42186;SDS011;27858;51.414;0.018;2023-11-21T10:38:21;0.82;;;0.82;;
42186;SDS011;27858;51.414;0.018;2023-11-21T10:40:50;0.57;;;0.50;;
42186;SDS011;27858;51.414;0.018;2023-11-21T10:43:18;0.63;;;0.40;;
42186;SDS011;27858;51.414;0.018;2023-11-21T10:45:45;0.80;;;0.30;;
42186;SDS011;27858;51.414;0.018;2023-11-21T10:48:13;0.52;;;0.40;;
42186;SDS011;27858;51.414;0.018;2023-11-21T10:50:46;2.13;;;0.70;;
42186;SDS011;27858;51.414;0.018;2023-11-21T10:53:13;3.03;;;0.43;;
42186;SDS011;27858;51.414;0.018;2023-11-21T10:55:41;1.13;;;0.68;;
42186;SDS011;27858;51.414;0.018;2023-11-21T10:58:11;0.73;;;0.30;;
42186;SDS011;27858;51.414;0.018;2023-11-21T11:00:41;0.55;;;0.35;;
42186;SDS011;27858;51.414;0.018;2023-11-21T11:03:12;1.38;;;0.70;;
42186;SDS011;27858;51.414;0.018;2023-11-21T11:05:45;0.65;;;0.30;;
42186;SDS011;27858;51.414;0.018;2023-11-21T11:08:19;0.75;;;0.40;;
42186;SDS011;27858;51.414;0.018;2023-11-21T11:10:53;0.40;;;0.40;;
42186;SDS011;27858;51.414;0.018;2023-11-21T11:13:21;0.40;;;0.40;;
42186;SDS011;27858;51.414;0.018;2023-11-21T11:15:49;0.40;;;0.40;;
42186;SDS011;27858;51.414;0.018;2023-11-21T11:18:16;2.58;;;0.55;;
42186;SDS011;27858;51.414;0.018;2023-11-21T11:20:45;2.05;;;0.95;;
42186;SDS011;27858;51.414;0.018;2023-11-21T11:29:55;0.20;;;0.20;;
42186;SDS011;27858;51.414;0.018;2023-11-21T11:37:46;1.73;;;0.87;;
42186;SDS011;27858;51.414;0.018;2023-11-21T11:40:13;2.22;;;0.55;;
42186;SDS011;27858;51.414;0.018;2023-11-21T11:43:00;1.85;;;0.65;;
42186;SDS011;27858;51.414;0.018;2023-11-21T11:45:34;0.40;;;0.40;;
42186;SDS011;27858;51.414;0.018;2023-11-21T11:48:02;0.40;;;0.40;;
42186;SDS011;27858;51.414;0.018;2023-11-21T11:50:30;1.75;;;0.80;;
42186;SDS011;27858;51.414;0.018;2023-11-21T11:53:11;1.00;;;0.40;;
42186;SDS011;27858;51.414;0.018;2023-11-21T11:55:39;0.30;;;0.30;;
42186;SDS011;27858;51.414;0.018;2023-11-21T11:58:06;1.17;;;0.40;;
42186;SDS011;27858;51.414;0.018;2023-11-21T12:00:35;0.57;;;0.50;;
42186;SDS011;27858;51.414;0.018;2023-11-21T12:03:07;1.35;;;1.25;;
42186;SDS011;27858;51.414;0.018;2023-11-21T12:05:35;2.92;;;0.40;;
42186;SDS011;27858;51.414;0.018;2023-11-21T12:08:07;3.78;;;1.75;;
42186;SDS011;27858;51.414;0.018;2023-11-21T12:10:36;1.27;;;0.55;;
42186;SDS011;27858;51.414;0.018;2023-11-21T12:13:08;0.75;;;0.65;;
42186;SDS011;27858;51.414;0.018;2023-11-21T12:15:37;0.85;;;0.38;;
42186;SDS011;27858;51.414;0.018;2023-11-21T12:18:07;0.40;;;0.40;;
42186;SDS011;27858;51.414;0.018;2023-11-21T12:20:34;0.45;;;0.38;;
42186;SDS011;27858;51.414;0.018;2023-11-21T12:23:06;0.55;;;0.30;;
42186;SDS011;27858;51.414;0.018;2023-11-21T12:25:36;1.52;;;1.00;;
42186;SDS011;27858;51.414;0.018;2023-11-21T12:28:03;1.52;;;0.85;;
42186;SDS011;27858;51.414;0.018;2023-11-21T12:30:30;0.95;;;0.82;;
42186;SDS011;27858;51.414;0.018;2023-11-21T12:33:02;1.55;;;0.50;;
42186;SDS011;27858;51.414;0.018;2023-11-21T12:35:31;1.38;;;0.63;;
42186;SDS011;27858;51.414;0.018;2023-11-21T12:38:03;0.47;;;0.47;;
42186;SDS011;27858;51.414;0.018;2023-11-21T12:40:31;1.25;;;0.68;;
42186;SDS011;27858;51.414;0.018;2023-11-21T12:42:58;0.75;;;0.70;;
42186;SDS011;27858;51.414;0.018;2023-11-21T12:45:28;0.80;;;0.50;;
42186;SDS011;27858;51.414;0.018;2023-11-21T12:50:27;1.02;;;0.88;;
42186;SDS011;27858;51.414;0.018;2023-11-21T12:52:59;1.48;;;0.93;;
42186;SDS011;27858;51.414;0.018;2023-11-21T12:55:32;0.93;;;0.60;;
42186;SDS011;27858;51.414;0.018;2023-11-21T12:58:05;0.63;;;0.50;;
42186;SDS011;27858;51.414;0.018;2023-11-21T13:00:39;0.82;;;0.82;;
42186;SDS011;27858;51.414;0.018;2023-11-21T13:03:10;1.05;;;0.57;;
42186;SDS011;27858;51.414;0.018;2023-11-21T13:05:46;1.02;;;0.88;;
42186;SDS011;27858;51.414;0.018;2023-11-21T13:08:19;1.42;;;0.98;;
42186;SDS011;27858;51.414;0.018;2023-11-21T13:10:49;0.65;;;0.60;;
42186;SDS011;27858;51.414;0.018;2023-11-21T13:13:19;1.15;;;0.88;;
42186;SDS011;27858;51.414;0.018;2023-11-21T13:15:54;1.02;;;0.65;;
42186;SDS011;27858;51.414;0.018;2023-11-21T13:18:23;0.50;;;0.40;;
42186;SDS011;27858;51.414;0.018;2023-11-21T13:20:57;1.98;;;1.02;;
42186;SDS011;27858;51.414;0.018;2023-11-21T13:23:29;0.77;;;0.40;;
42186;SDS011;27858;51.414;0.018;2023-11-21T13:26:02;0.60;;;0.50;;
42186;SDS011;27858;51.414;0.018;2023-11-21T13:28:33;2.65;;;1.10;;
42186;SDS011;27858;51.414;0.018;2023-11-21T13:31:01;0.30;;;0.30;;
42186;SDS011;27858;51.414;0.018;2023-11-21T13:33:37;2.83;;;0.65;;
42186;SDS011;27858;51.414;0.018;2023-11-21T13:36:05;0.10;;;0.10;;
42186;SDS011;27858;51.414;0.018;2023-11-21T13:38:36;0.55;;;0.50;;
42186;SDS011;27858;51.414;0.018;2023-11-21T13:41:07;1.05;;;0.30;;
42186;SDS011;27858;51.414;0.018;2023-11-21T13:43:36;1.05;;;0.20;;
42186;SDS011;27858;51.414;0.018;2023-11-21T13:46:04;1.05;;;0.40;;
42186;SDS011;27858;51.414;0.018;2023-11-21T13:48:40;0.20;;;0.20;;
42186;SDS011;27858;51.414;0.018;2023-11-21T13:51:09;0.30;;;0.10;;
42186;SDS011;27858;51.414;0.018;2023-11-21T13:53:47;0.13;;;0.13;;
42186;SDS011;27858;51.414;0.018;2023-11-21T13:56:19;0.57;;;0.30;;
42186;SDS011;27858;51.414;0.018;2023-11-21T13:58:51;1.13;;;0.30;;
42186;SDS011;27858;51.414;0.018;2023-11-21T14:01:20;2.55;;;0.22;;
42186;SDS011;27858;51.414;0.018;2023-11-21T14:03:57;1.10;;;0.22;;
42186;SDS011;27858;51.414;0.018;2023-11-21T14:06:35;0.50;;;0.50;;
42186;SDS011;27858;51.414;0.018;2023-11-21T14:09:14;1.75;;;0.22;;
42186;SDS011;27858;51.414;0.018;2023-11-21T14:11:52;0.30;;;0.30;;
42186;SDS011;27858;51.414;0.018;2023-11-21T14:14:22;0.98;;;0.40;;
42186;SDS011;27858;51.414;0.018;2023-11-21T14:16:54;1.27;;;0.40;;
42186;SDS011;27858;51.414;0.018;2023-11-21T14:19:22;0.40;;;0.40;;
42186;SDS011;27858;51.414;0.018;2023-11-21T14:21:53;3.13;;;0.60;;
42186;SDS011;27858;51.414;0.018;2023-11-21T14:24:20;4.32;;;0.82;;
42186;SDS011;27858;51.414;0.018;2023-11-21T14:26:51;1.90;;;0.73;;
42186;SDS011;27858;51.414;0.018;2023-11-21T14:29:19;1.17;;;0.50;;
42186;SDS011;27858;51.414;0.018;2023-11-21T14:31:47;0.55;;;0.40;;
42186;SDS011;27858;51.414;0.018;2023-11-21T14:34:14;1.13;;;0.45;;
42186;SDS011;27858;51.414;0.018;2023-11-21T14:36:46;3.25;;;0.77;;
42186;SDS011;27858;51.414;0.018;2023-11-21T14:39:13;1.50;;;0.85;;
42186;SDS011;27858;51.414;0.018;2023-11-21T14:41:50;2.33;;;0.75;;
42186;SDS011;27858;51.414;0.018;2023-11-21T14:44:19;1.67;;;0.95;;
42186;SDS011;27858;51.414;0.018;2023-11-21T14:46:50;2.25;;;0.50;;
42186;SDS011;27858;51.414;0.018;2023-11-21T14:49:19;1.17;;;0.63;;
42186;SDS011;27858;51.414;0.018;2023-11-21T14:51:46;1.73;;;1.00;;
42186;SDS011;27858;51.414;0.018;2023-11-21T14:54:27;8.40;;;0.95;;
42186;SDS011;27858;51.414;0.018;2023-11-21T14:57:03;1.23;;;1.02;;
42186;SDS011;27858;51.414;0.018;2023-11-21T14:59:33;1.02;;;0.82;;
42186;SDS011;27858;51.414;0.018;2023-11-21T15:02:02;2.92;;;1.15;;
42186;SDS011;27858;51.414;0.018;2023-11-21T15:04:42;1.77;;;0.90;;
42186;SDS011;27858;51.414;0.018;2023-11-21T15:07:09;2.35;;;0.80;;
42186;SDS011;27858;51.414;0.018;2023-11-21T15:09:39;2.60;;;0.60;;
42186;SDS011;27858;51.414;0.018;2023-11-21T15:12:11;1.08;;;0.60;;
42186;SDS011;27858;51.414;0.018;2023-11-21T15:14:46;5.38;;;1.38;;